Time;durP1;ratioP1;P1;durP2;ratioP2;P2;SDS_P1;SDS_P2;PMS_P1;PMS_P2;Temp;Humidity;BMP_temperature;BMP_pressure;BME280_temperature;BME280_humidity;BME280_pressure;Samples;Min_cycle;Max_cycle;Signal;HPM_P1;HPM_P2
2021/10/26 00:00:00;;;;;;;27.25;17.23;;;12.90;95.70;;;;;;5072365;28;20029;-79
2021/10/26 00:02:26;;;;;;;25.05;17.73;;;12.90;95.80;;;;;;5072257;28;20481;-80
2021/10/26 00:04:52;;;;;;;28.23;19.42;;;12.90;95.80;;;;;;5072223;28;20123;-79
2021/10/26 00:07:17;;;;;;;26.45;19.02;;;12.90;95.80;;;;;;5055935;28;20060;-79
2021/10/26 00:09:43;;;;;;;29.45;18.98;;;12.90;95.80;;;;;;5067900;28;20032;-80
2021/10/26 00:12:09;;;;;;;26.90;18.75;;;12.90;95.80;;;;;;5035152;28;20018;-78
2021/10/26 00:14:35;;;;;;;30.15;20.50;;;12.90;95.90;;;;;;5034914;28;20032;-77
2021/10/26 00:17:01;;;;;;;29.83;19.00;;;12.90;95.90;;;;;;5051776;28;20044;-80
2021/10/26 00:19:27;;;;;;;31.90;21.15;;;12.90;95.90;;;;;;5053264;28;20476;-80
2021/10/26 00:21:53;;;;;;;25.95;19.10;;;12.90;96.00;;;;;;5035151;28;20032;-74
2021/10/26 00:24:18;;;;;;;28.67;20.17;;;12.90;95.90;;;;;;5052966;28;20025;-77
2021/10/26 00:26:44;;;;;;;29.33;19.35;;;12.90;95.90;;;;;;5051676;28;20488;-78
2021/10/26 00:29:10;;;;;;;26.55;17.67;;;12.90;95.90;;;;;;5035462;28;20048;-78
2021/10/26 00:31:35;;;;;;;28.20;19.05;;;12.90;96.00;;;;;;5018634;28;20025;-79
2021/10/26 00:34:02;;;;;;;26.63;18.52;;;12.90;95.90;;;;;;5035413;28;20029;-79
2021/10/26 00:36:28;;;;;;;27.83;18.88;;;12.90;95.90;;;;;;5054841;28;20067;-80
2021/10/26 00:38:54;;;;;;;30.58;18.73;;;12.90;95.90;;;;;;5070871;28;20056;-77
2021/10/26 00:41:20;;;;;;;28.33;20.38;;;12.90;96.00;;;;;;5059088;28;20052;-79
2021/10/26 00:43:46;;;;;;;26.73;19.40;;;12.90;96.30;;;;;;5075350;28;20444;-77
2021/10/26 00:46:12;;;;;;;30.95;21.23;;;12.90;96.00;;;;;;5042726;28;20063;-77
2021/10/26 00:48:38;;;;;;;31.52;20.48;;;12.90;96.00;;;;;;5075837;28;20112;-77
2021/10/26 00:51:06;;;;;;;29.85;21.35;;;12.90;96.00;;;;;;5058955;28;20122;-77
2021/10/26 00:53:32;;;;;;;34.35;21.58;;;13.00;96.00;;;;;;5075517;28;20021;-77
2021/10/26 00:55:57;;;;;;;28.83;19.60;;;12.90;96.00;;;;;;5059132;28;20032;-78
2021/10/26 00:58:23;;;;;;;30.55;22.23;;;12.90;96.00;;;;;;5058500;28;20028;-77
2021/10/26 01:00:49;;;;;;;32.90;22.42;;;13.00;96.30;;;;;;5058907;28;20040;-76
2021/10/26 01:03:15;;;;;;;29.52;19.48;;;12.90;96.00;;;;;;5075438;28;20028;-77
2021/10/26 01:05:41;;;;;;;29.77;21.00;;;12.90;96.00;;;;;;5058717;28;20032;-78
2021/10/26 01:08:07;;;;;;;28.90;20.35;;;12.90;96.00;;;;;;5042116;28;20021;-78
2021/10/26 01:10:34;;;;;;;31.05;20.58;;;12.90;96.00;;;;;;5042132;28;20029;-77
2021/10/26 01:13:04;;;;;;;33.83;21.00;;;13.00;96.00;;;;;;5054729;28;20029;-80
2021/10/26 01:15:33;;;;;;;33.30;22.63;;;13.00;96.00;;;;;;5070304;28;20132;-83
2021/10/26 01:17:58;;;;;;;33.15;21.30;;;12.90;96.00;;;;;;5046929;28;20120;-85
2021/10/26 01:20:24;;;;;;;31.23;21.20;;;12.90;96.00;;;;;;5038303;28;20067;-80
2021/10/26 01:22:50;;;;;;;28.80;21.02;;;13.00;96.00;;;;;;5055335;28;20033;-80
2021/10/26 01:25:15;;;;;;;35.40;22.80;;;12.90;96.00;;;;;;5055018;28;20094;-81
2021/10/26 01:27:53;;;;;;;32.30;22.55;;;12.90;96.10;;;;;;5038441;28;20079;-80
2021/10/26 01:30:37;;;;;;;32.10;21.73;;;12.90;96.10;;;;;;5056113;28;21164;-80
2021/10/26 01:33:05;;;;;;;35.97;23.85;;;13.00;96.10;;;;;;5054781;28;20115;-80
2021/10/26 01:35:31;;;;;;;34.03;24.23;;;12.90;96.10;;;;;;5038371;28;20078;-80
2021/10/26 01:37:57;;;;;;;34.17;23.17;;;12.90;96.10;;;;;;5054972;28;20033;-78
2021/10/26 01:40:24;;;;;;;33.92;21.80;;;12.90;96.10;;;;;;5054862;28;20051;-80
2021/10/26 01:42:50;;;;;;;32.97;23.08;;;12.90;96.10;;;;;;5058147;28;20033;-80
2021/10/26 01:45:17;;;;;;;40.95;24.38;;;12.90;96.10;;;;;;5054564;28;20485;-80
2021/10/26 01:47:42;;;;;;;39.58;25.73;;;12.90;96.20;;;;;;5053702;28;20530;-80
2021/10/26 01:50:10;;;;;;;37.95;24.48;;;12.90;96.20;;;;;;5038350;28;20025;-80
2021/10/26 01:52:39;;;;;;;38.05;25.50;;;12.90;96.20;;;;;;5075567;28;20182;-80
2021/10/26 01:55:06;;;;;;;38.10;24.90;;;12.90;96.20;;;;;;5058515;28;20045;-80
2021/10/26 01:57:32;;;;;;;41.05;25.52;;;12.90;96.20;;;;;;5074401;28;20086;-80
2021/10/26 01:59:59;;;;;;;40.40;26.50;;;12.90;96.20;;;;;;5057859;28;20121;-80
2021/10/26 02:02:25;;;;;;;39.22;26.30;;;12.80;96.40;;;;;;5057822;28;20086;-80
2021/10/26 02:04:52;;;;;;;41.65;25.98;;;12.80;96.40;;;;;;5057712;28;20044;-80
2021/10/26 02:07:18;;;;;;;37.50;25.15;;;12.80;96.40;;;;;;5074448;28;20029;-80
2021/10/26 02:09:44;;;;;;;37.35;25.40;;;12.80;96.40;;;;;;5074553;28;20060;-80
2021/10/26 02:12:10;;;;;;;40.97;25.55;;;12.80;96.40;;;;;;5074320;28;20523;-80
2021/10/26 02:14:36;;;;;;;37.92;25.25;;;12.80;96.80;;;;;;5057605;28;20025;-79
2021/10/26 02:17:04;;;;;;;39.45;26.48;;;12.80;96.50;;;;;;5075160;28;20048;-80
2021/10/26 02:19:29;;;;;;;32.25;21.92;;;12.80;96.50;;;;;;5075258;28;20517;-84
2021/10/26 02:21:56;;;;;;;35.58;25.05;;;12.80;96.50;;;;;;5074008;28;20082;-80
2021/10/26 02:24:21;;;;;;;41.65;26.23;;;12.80;96.50;;;;;;5057467;28;20037;-80
2021/10/26 02:26:47;;;;;;;39.28;25.92;;;12.80;96.40;;;;;;5074062;28;20032;-81
2021/10/26 02:29:13;;;;;;;35.88;24.35;;;12.80;96.50;;;;;;5057403;28;20035;-80
2021/10/26 02:31:39;;;;;;;41.15;26.85;;;12.80;96.50;;;;;;5073822;28;20111;-79
2021/10/26 02:34:05;;;;;;;38.60;25.05;;;12.80;96.80;;;;;;5057203;28;20052;-81
2021/10/26 02:36:30;;;;;;;38.15;24.98;;;12.80;96.50;;;;;;5074869;28;20040;-79
2021/10/26 02:38:56;;;;;;;32.70;22.15;;;12.80;96.50;;;;;;5074235;28;20033;-79
2021/10/26 02:41:22;;;;;;;36.35;23.98;;;12.80;96.60;;;;;;5057456;28;20101;-80
2021/10/26 02:43:47;;;;;;;38.80;24.80;;;12.80;96.50;;;;;;5075004;28;20032;-78
2021/10/26 02:46:13;;;;;;;33.97;23.45;;;12.80;96.60;;;;;;5073440;28;20033;-77
2021/10/26 02:48:42;;;;;;;37.10;26.48;;;12.80;96.50;;;;;;5056935;28;20113;-79
2021/10/26 02:51:08;;;;;;;37.28;25.80;;;12.80;96.60;;;;;;5054521;28;20037;-78
2021/10/26 02:53:34;;;;;;;42.20;26.17;;;12.80;96.60;;;;;;5052967;28;20027;-78
2021/10/26 02:56:00;;;;;;;35.95;25.60;;;12.80;96.60;;;;;;5053576;28;20055;-79
2021/10/26 02:58:25;;;;;;;49.85;28.13;;;12.90;96.60;;;;;;5035322;28;20053;-78
2021/10/26 03:00:51;;;;;;;41.17;26.75;;;12.80;96.60;;;;;;5036467;28;20033;-78
2021/10/26 03:03:17;;;;;;;36.38;25.80;;;12.80;96.60;;;;;;5036829;28;20033;-81
2021/10/26 03:05:43;;;;;;;41.22;26.80;;;12.80;96.60;;;;;;5052994;28;20032;-80
2021/10/26 03:08:09;;;;;;;39.60;25.83;;;12.80;96.60;;;;;;5053136;28;20446;-80
2021/10/26 03:10:35;;;;;;;40.88;24.90;;;12.80;96.60;;;;;;5036273;28;20059;-80
2021/10/26 03:13:01;;;;;;;40.83;26.83;;;12.70;96.50;;;;;;5036272;28;20074;-81
2021/10/26 03:15:28;;;;;;;37.28;25.27;;;12.80;96.60;;;;;;5035961;28;20064;-81
2021/10/26 03:17:53;;;;;;;38.90;25.92;;;12.80;96.60;;;;;;5036363;28;20124;-81
2021/10/26 03:20:20;;;;;;;43.80;28.65;;;12.80;96.60;;;;;;5019628;28;20059;-80
2021/10/26 03:22:45;;;;;;;39.15;28.67;;;12.80;96.80;;;;;;5052624;28;20074;-78
2021/10/26 03:25:11;;;;;;;39.20;27.02;;;12.70;96.70;;;;;;5035888;28;20481;-79
2021/10/26 03:27:37;;;;;;;38.45;25.52;;;12.80;96.70;;;;;;5019499;28;20025;-81
2021/10/26 03:30:08;;;;;;;41.25;28.33;;;12.80;96.70;;;;;;5035911;28;20025;-80
2021/10/26 03:32:34;;;;;;;40.05;26.20;;;12.80;96.70;;;;;;5052390;28;20025;-80
2021/10/26 03:34:59;;;;;;;37.38;24.83;;;12.70;96.60;;;;;;5052951;28;20094;-79
2021/10/26 03:37:25;;;;;;;37.70;27.33;;;12.80;96.60;;;;;;5043542;28;20021;-80
2021/10/26 03:39:55;;;;;;;40.58;27.30;;;12.70;96.60;;;;;;5069081;28;20079;-78
2021/10/26 03:42:22;;;;;;;42.33;27.50;;;12.80;96.60;;;;;;5053748;28;20056;-80
2021/10/26 03:44:48;;;;;;;37.65;27.02;;;12.70;96.60;;;;;;5069161;28;20057;-81
2021/10/26 03:47:13;;;;;;;41.35;27.27;;;12.70;96.60;;;;;;5052538;28;20120;-80
2021/10/26 03:49:39;;;;;;;42.42;29.40;;;12.70;96.70;;;;;;5052297;28;20128;-79
2021/10/26 03:52:05;;;;;;;47.30;31.60;;;12.70;96.70;;;;;;5052399;28;20032;-79
2021/10/26 03:54:30;;;;;;;47.35;31.20;;;12.60;96.70;;;;;;5052250;28;20033;-80
2021/10/26 03:56:56;;;;;;;43.65;30.20;;;12.60;96.80;;;;;;5052381;28;20033;-79
2021/10/26 03:59:22;;;;;;;47.45;31.85;;;12.60;96.80;;;;;;5052240;28;20131;-77
2021/10/26 04:01:49;;;;;;;47.88;30.95;;;12.60;96.80;;;;;;5052410;28;20064;-79
2021/10/26 04:04:15;;;;;;;46.03;29.95;;;12.50;96.80;;;;;;5052317;28;20037;-79
2021/10/26 04:06:43;;;;;;;44.28;30.15;;;12.50;96.70;;;;;;5052673;28;20167;-79
2021/10/26 04:09:11;;;;;;;43.38;28.80;;;12.60;96.80;;;;;;5068838;28;20123;-77
2021/10/26 04:11:51;;;;;;;43.15;28.13;;;12.50;96.70;;;;;;5052488;28;20029;-78
2021/10/26 04:14:17;;;;;;;42.38;29.33;;;12.50;96.80;;;;;;5068864;28;20034;-78
2021/10/26 04:16:42;;;;;;;42.28;27.30;;;12.50;96.80;;;;;;5068689;28;20053;-78
2021/10/26 04:19:10;;;;;;;39.78;27.23;;;12.50;96.80;;;;;;5052511;28;20091;-77
2021/10/26 04:21:35;;;;;;;45.05;27.25;;;12.60;96.80;;;;;;5068718;28;20476;-80
2021/10/26 04:24:02;;;;;;;45.33;27.83;;;12.50;96.80;;;;;;5068661;28;20032;-77
2021/10/26 04:26:28;;;;;;;44.90;28.13;;;12.50;96.70;;;;;;5052063;28;20041;-78
2021/10/26 04:28:53;;;;;;;44.00;27.45;;;12.50;96.80;;;;;;5051801;28;20029;-78
2021/10/26 04:31:19;;;;;;;44.95;28.10;;;12.50;96.70;;;;;;5052231;28;20043;-80
2021/10/26 04:33:44;;;;;;;39.47;26.27;;;12.40;96.70;;;;;;5051964;28;20033;-79
2021/10/26 04:36:10;;;;;;;51.63;29.45;;;12.50;96.70;;;;;;5051649;28;20060;-78
2021/10/26 04:38:36;;;;;;;51.58;31.77;;;12.50;96.80;;;;;;5054759;28;20465;-79
2021/10/26 04:41:07;;;;;;;51.67;29.63;;;12.40;96.80;;;;;;5068896;28;20032;-77
2021/10/26 04:43:33;;;;;;;58.85;33.38;;;12.40;97.00;;;;;;5057419;28;20033;-78
2021/10/26 04:45:59;;;;;;;51.15;31.00;;;12.40;97.10;;;;;;5054258;28;20115;-78
2021/10/26 04:48:25;;;;;;;50.95;30.73;;;12.40;97.40;;;;;;5034174;28;20044;-80
2021/10/26 04:50:51;;;;;;;48.45;31.23;;;12.30;97.10;;;;;;5054826;28;20024;-79
2021/10/26 04:53:17;;;;;;;51.08;30.10;;;12.30;97.10;;;;;;5047576;28;20032;-80
2021/10/26 04:55:43;;;;;;;50.47;30.70;;;12.40;97.20;;;;;;5057511;28;20808;-80
2021/10/26 04:58:08;;;;;;;50.50;29.95;;;12.30;97.20;;;;;;5050516;28;20083;-80
2021/10/26 05:00:34;;;;;;;46.80;29.33;;;12.30;97.10;;;;;;5072846;28;20029;-81
2021/10/26 05:03:00;;;;;;;50.42;29.35;;;12.40;97.20;;;;;;5054769;28;20052;-79
2021/10/26 05:05:25;;;;;;;48.50;29.92;;;12.30;97.10;;;;;;5071284;28;20020;-77
2021/10/26 05:07:51;;;;;;;48.90;30.75;;;12.30;97.20;;;;;;5038274;28;20067;-79
2021/10/26 05:10:17;;;;;;;53.65;30.48;;;12.20;97.20;;;;;;5071169;28;20057;-80
2021/10/26 05:12:43;;;;;;;46.60;29.92;;;12.20;97.20;;;;;;5070937;28;20060;-79
2021/10/26 05:15:09;;;;;;;49.80;29.05;;;12.30;97.20;;;;;;5071235;28;20082;-78
2021/10/26 05:17:36;;;;;;;45.88;30.00;;;12.30;97.10;;;;;;5071679;28;20071;-78
2021/10/26 05:20:05;;;;;;;48.25;29.50;;;12.20;97.20;;;;;;5054928;28;20029;-78
2021/10/26 05:22:31;;;;;;;47.03;30.52;;;12.20;97.20;;;;;;5072934;28;20028;-83
2021/10/26 05:24:56;;;;;;;52.47;31.13;;;12.20;97.20;;;;;;5063071;28;20032;-79
2021/10/26 05:27:22;;;;;;;53.22;32.20;;;12.20;97.20;;;;;;5064595;28;20059;-81
2021/10/26 05:29:49;;;;;;;47.25;30.85;;;12.20;97.20;;;;;;5058436;28;20025;-79
2021/10/26 05:32:15;;;;;;;50.40;32.83;;;12.20;97.20;;;;;;5065810;28;20079;-80
2021/10/26 05:34:41;;;;;;;51.95;32.65;;;12.20;97.30;;;;;;5058280;28;20032;-79
2021/10/26 05:37:12;;;;;;;52.33;32.78;;;12.20;97.30;;;;;;5074307;28;20165;-79
2021/10/26 05:39:39;;;;;;;50.45;30.98;;;12.20;97.30;;;;;;5074795;28;20035;-80
2021/10/26 05:42:06;;;;;;;52.33;32.80;;;12.20;97.30;;;;;;5074729;28;20103;-79
2021/10/26 05:44:33;;;;;;;49.10;32.25;;;12.20;97.30;;;;;;5075973;28;20536;-81
2021/10/26 05:46:59;;;;;;;52.92;32.33;;;12.20;97.30;;;;;;5074586;28;20374;-80
2021/10/26 05:49:24;;;;;;;49.03;30.52;;;12.10;97.30;;;;;;5074525;28;20070;-78
2021/10/26 05:51:50;;;;;;;56.97;33.22;;;12.10;97.30;;;;;;5058346;28;20028;-79
2021/10/26 05:54:16;;;;;;;60.47;36.17;;;12.10;97.30;;;;;;5057819;28;20070;-80
2021/10/26 05:56:42;;;;;;;57.28;34.50;;;12.10;97.30;;;;;;5041161;28;20071;-80
2021/10/26 05:59:07;;;;;;;53.35;33.85;;;12.10;97.40;;;;;;5040968;28;20128;-80
2021/10/26 06:01:33;;;;;;;55.00;33.42;;;12.10;97.40;;;;;;5041493;28;20028;-79
2021/10/26 06:04:01;;;;;;;60.03;34.72;;;12.10;97.50;;;;;;5074645;28;20027;-80
2021/10/26 06:06:27;;;;;;;55.65;32.75;;;12.00;97.50;;;;;;5073615;28;20047;-79
2021/10/26 06:08:53;;;;;;;61.47;33.55;;;12.10;97.50;;;;;;5057577;28;20021;-79
2021/10/26 06:11:22;;;;;;;59.80;35.85;;;12.00;97.50;;;;;;5041475;28;20035;-78
2021/10/26 06:13:59;;;;;;;58.40;33.50;;;12.00;97.50;;;;;;5075646;28;20033;-79
2021/10/26 06:16:25;;;;;;;58.58;35.53;;;12.00;97.50;;;;;;5075199;28;20063;-78
2021/10/26 06:18:51;;;;;;;55.33;33.50;;;12.10;97.60;;;;;;5057782;28;20033;-78
2021/10/26 06:21:16;;;;;;;57.70;33.28;;;12.10;97.60;;;;;;5074283;28;20392;-80
2021/10/26 06:23:42;;;;;;;65.97;34.78;;;12.00;97.60;;;;;;5040767;28;20420;-78
2021/10/26 06:26:08;;;;;;;58.53;34.80;;;12.00;97.60;;;;;;5057277;28;20037;-79
2021/10/26 06:28:33;;;;;;;53.15;31.60;;;12.00;97.60;;;;;;5075153;28;20554;-79
2021/10/26 06:31:00;;;;;;;59.28;34.65;;;12.10;97.60;;;;;;5073998;28;20055;-79
2021/10/26 06:33:26;;;;;;;54.15;33.67;;;12.00;97.60;;;;;;5072775;28;20107;-79
2021/10/26 06:35:52;;;;;;;60.28;34.35;;;12.10;97.70;;;;;;5057679;28;20536;-78
2021/10/26 06:38:18;;;;;;;60.05;34.17;;;12.10;97.70;;;;;;5056974;28;20070;-77
2021/10/26 06:40:44;;;;;;;64.75;34.25;;;12.10;97.70;;;;;;5074040;28;20082;-77
2021/10/26 06:43:09;;;;;;;62.55;34.65;;;12.00;97.70;;;;;;5056982;28;20055;-76
2021/10/26 06:45:35;;;;;;;61.03;34.00;;;12.10;97.80;;;;;;5073358;28;20037;-77
2021/10/26 06:48:01;;;;;;;68.68;34.60;;;12.00;97.80;;;;;;5056915;28;20028;-77
2021/10/26 06:50:26;;;;;;;55.83;32.60;;;12.00;98.10;;;;;;5053351;28;20025;-77
2021/10/26 06:52:52;;;;;;;53.63;30.92;;;12.00;97.80;;;;;;5053512;28;20036;-80
2021/10/26 06:55:18;;;;;;;57.17;33.80;;;12.10;98.10;;;;;;5025450;28;20033;-78
2021/10/26 06:57:47;;;;;;;60.35;33.90;;;12.10;97.80;;;;;;5037286;28;20564;-79
2021/10/26 07:00:14;;;;;;;59.75;32.17;;;12.10;97.90;;;;;;5068868;28;20051;-76
2021/10/26 07:02:51;;;;;;;59.42;32.97;;;12.10;97.80;;;;;;5054438;28;20025;-78
2021/10/26 07:05:23;;;;;;;60.75;31.98;;;12.10;97.80;;;;;;5053160;28;20021;-77
2021/10/26 07:07:49;;;;;;;56.70;32.08;;;12.10;97.80;;;;;;5053091;28;20052;-77
2021/10/26 07:10:15;;;;;;;56.95;31.80;;;12.20;97.90;;;;;;5053060;28;20128;-78
2021/10/26 07:12:41;;;;;;;53.90;30.08;;;12.10;97.80;;;;;;5053024;28;20469;-78
2021/10/26 07:15:08;;;;;;;52.85;30.20;;;12.10;97.70;;;;;;5036042;28;20171;-77
2021/10/26 07:17:35;;;;;;;51.10;29.30;;;12.20;97.70;;;;;;5053018;28;20040;-77
2021/10/26 07:20:03;;;;;;;55.33;31.80;;;12.20;97.80;;;;;;5052991;28;20115;-76
2021/10/26 07:22:28;;;;;;;62.90;32.63;;;12.20;97.80;;;;;;5063205;28;20388;-80
2021/10/26 07:24:59;;;;;;;55.42;32.17;;;12.20;97.80;;;;;;5055342;28;20025;-78
2021/10/26 07:27:26;;;;;;;49.47;30.02;;;12.20;97.80;;;;;;5055605;28;20473;-79
2021/10/26 07:29:52;;;;;;;57.22;32.03;;;12.20;97.80;;;;;;5039382;28;20025;-78
2021/10/26 07:32:21;;;;;;;54.85;29.85;;;12.20;97.70;;;;;;5043706;28;20052;-79
2021/10/26 07:34:47;;;;;;;54.47;28.30;;;12.20;97.70;;;;;;5056521;28;20021;-79
2021/10/26 07:37:14;;;;;;;50.60;29.98;;;12.40;97.80;;;;;;5072330;28;20040;-78
2021/10/26 07:39:48;;;;;;;58.83;31.58;;;12.30;97.80;;;;;;5072403;28;20400;-79
2021/10/26 07:42:18;;;;;;;55.15;32.13;;;12.30;97.70;;;;;;5054281;28;20035;-80
2021/10/26 07:44:51;;;;;;;59.03;31.55;;;12.40;97.70;;;;;;5066164;28;20048;-79
2021/10/26 07:47:20;;;;;;;60.53;31.70;;;12.40;97.70;;;;;;5064929;28;20538;-79
2021/10/26 07:49:48;;;;;;;55.97;32.67;;;12.40;97.60;;;;;;5067841;28;20465;-79
2021/10/26 07:52:14;;;;;;;55.50;32.33;;;12.40;97.60;;;;;;5073666;28;20052;-80
2021/10/26 07:54:41;;;;;;;52.00;30.23;;;12.40;97.60;;;;;;5055545;28;20148;-80
2021/10/26 07:57:08;;;;;;;54.92;28.80;;;12.50;97.60;;;;;;5073620;28;20484;-79
2021/10/26 07:59:34;;;;;;;50.85;30.02;;;12.40;97.50;;;;;;5055365;28;20090;-79
2021/10/26 08:02:00;;;;;;;52.15;29.88;;;12.50;97.50;;;;;;5055544;28;20024;-79
2021/10/26 08:04:26;;;;;;;55.45;28.70;;;12.60;97.40;;;;;;5071982;28;20059;-81
2021/10/26 08:06:51;;;;;;;52.83;28.08;;;12.60;97.30;;;;;;5071915;28;20591;-78
2021/10/26 08:09:17;;;;;;;50.42;28.23;;;12.60;97.30;;;;;;5055266;28;20116;-79
2021/10/26 08:11:43;;;;;;;45.85;26.85;;;12.60;97.30;;;;;;5055168;28;20025;-77
2021/10/26 08:14:10;;;;;;;50.03;27.23;;;12.70;97.30;;;;;;5055256;28;20064;-78
2021/10/26 08:16:36;;;;;;;48.03;25.50;;;12.70;97.30;;;;;;5072975;28;20057;-78
2021/10/26 08:19:03;;;;;;;44.22;26.90;;;12.70;97.30;;;;;;5073270;28;20122;-78
2021/10/26 08:21:28;;;;;;;50.58;27.88;;;12.80;97.20;;;;;;5073130;28;20035;-78
2021/10/26 08:23:55;;;;;;;45.03;25.95;;;12.90;97.20;;;;;;5071797;28;20029;-77
2021/10/26 08:26:35;;;;;;;50.05;29.73;;;12.90;97.10;;;;;;5055055;28;20086;-79
2021/10/26 08:29:31;;;;;;;47.15;27.77;;;12.90;97.00;;;;;;5056847;28;20430;-80
2021/10/26 08:34:30;;;;;;;39.15;23.67;;;13.00;97.00;;;;;;5072712;28;20025;-80
2021/10/26 08:36:56;;;;;;;44.83;26.48;;;13.00;96.90;;;;;;5071501;28;20032;-84
2021/10/26 08:39:22;;;;;;;43.55;26.60;;;13.10;96.80;;;;;;5054983;28;20033;-80
2021/10/26 08:41:51;;;;;;;52.03;27.40;;;13.10;96.70;;;;;;5072873;28;20031;-80
2021/10/26 08:44:18;;;;;;;48.60;26.98;;;13.10;96.60;;;;;;5072049;28;20020;-81
2021/10/26 08:46:45;;;;;;;45.17;26.10;;;13.20;96.60;;;;;;5072611;28;20020;-79
2021/10/26 08:49:14;;;;;;;44.30;25.73;;;13.20;96.40;;;;;;5072911;28;20082;-81
2021/10/26 08:51:43;;;;;;;40.80;23.77;;;13.20;96.30;;;;;;5071641;28;20020;-82
2021/10/26 08:54:10;;;;;;;42.03;24.75;;;13.20;96.10;;;;;;5055301;28;20017;-80
2021/10/26 08:56:36;;;;;;;49.45;25.15;;;13.20;96.10;;;;;;5072940;28;20029;-79
2021/10/26 08:59:02;;;;;;;47.95;27.60;;;13.20;95.90;;;;;;5058752;28;20040;-79
2021/10/26 09:01:29;;;;;;;43.97;25.52;;;13.20;95.80;;;;;;5076366;28;20029;-78
2021/10/26 09:04:07;;;;;;;46.10;26.08;;;13.10;95.80;;;;;;5058740;28;20108;-80
2021/10/26 09:06:42;;;;;;;49.05;26.98;;;13.10;95.80;;;;;;5075235;28;20107;-78
2021/10/26 09:09:16;;;;;;;50.28;29.70;;;13.20;95.90;;;;;;5064841;28;20438;-78
2021/10/26 09:16:40;;;;;;;43.80;26.65;;;13.20;95.70;;;;;;5073254;28;20139;-78
2021/10/26 09:17:27;;;;;;;45.65;25.95;;;13.20;96.00;;;;;;5067714;28;20047;-77
2021/10/26 09:20:01;;;;;;;39.05;23.77;;;13.30;95.50;;;;;;5057078;28;20090;-80
2021/10/26 09:22:28;;;;;;;45.47;25.52;;;13.30;95.60;;;;;;5055688;28;20052;-80
2021/10/26 09:25:05;;;;;;;39.03;23.30;;;13.40;95.60;;;;;;5058499;28;20032;-78
2021/10/26 09:27:31;;;;;;;36.60;23.08;;;13.40;95.90;;;;;;5067096;28;20112;-77
2021/10/26 09:30:00;;;;;;;42.08;24.50;;;13.50;95.50;;;;;;5048948;28;20405;-77
2021/10/26 09:32:40;;;;;;;40.10;24.25;;;13.60;95.50;;;;;;5075820;28;20096;-79
2021/10/26 09:35:08;;;;;;;36.20;23.17;;;13.60;95.30;;;;;;5074403;28;20036;-80
2021/10/26 09:37:41;;;;;;;39.17;22.10;;;13.60;95.30;;;;;;5074870;28;20483;-78
2021/10/26 09:40:09;;;;;;;28.67;18.30;;;13.70;95.30;;;;;;5076346;28;20477;-77
2021/10/26 09:42:47;;;;;;;31.63;18.48;;;13.80;95.20;;;;;;5076052;28;20024;-78
2021/10/26 09:45:25;;;;;;;27.63;15.98;;;13.90;94.70;;;;;;5074617;28;20017;-77
2021/10/26 09:47:57;;;;;;;32.70;17.10;;;13.90;94.40;;;;;;5075665;28;20480;-79
2021/10/26 09:50:30;;;;;;;28.70;15.73;;;13.90;94.40;;;;;;5076041;28;20021;-79
2021/10/26 09:53:03;;;;;;;27.45;16.65;;;13.90;94.10;;;;;;5075964;28;20040;-79
2021/10/26 09:55:36;;;;;;;28.63;14.93;;;14.00;94.00;;;;;;5074414;28;20036;-79
2021/10/26 09:58:05;;;;;;;25.83;15.80;;;14.00;94.00;;;;;;5074443;28;20033;-81
2021/10/26 10:00:36;;;;;;;34.85;18.13;;;14.00;93.80;;;;;;5073937;28;20493;-81
2021/10/26 10:03:16;;;;;;;21.23;13.32;;;14.00;93.70;;;;;;5074701;28;20476;-81
2021/10/26 10:05:42;;;;;;;24.10;14.48;;;13.90;93.80;;;;;;5057642;28;20039;-78
2021/10/26 10:08:33;;;;;;;28.00;15.00;;;13.90;93.90;;;;;;5073832;28;20017;-80
2021/10/26 10:11:21;;;;;;;26.00;13.63;;;13.90;93.70;;;;;;5058776;28;20518;-81
2021/10/26 10:13:52;;;;;;;19.55;13.05;;;13.90;93.70;;;;;;5073724;28;20103;-77
2021/10/26 10:16:20;;;;;;;24.50;13.52;;;14.00;93.80;;;;;;5073388;28;20106;-80
2021/10/26 10:18:47;;;;;;;23.40;13.57;;;14.00;93.70;;;;;;5074160;28;20039;-81
2021/10/26 10:21:21;;;;;;;21.73;12.10;;;14.10;93.80;;;;;;5040829;28;20115;-79
2021/10/26 10:23:48;;;;;;;23.88;13.63;;;14.20;93.70;;;;;;5074208;28;20028;-80
2021/10/26 10:26:16;;;;;;;26.50;13.00;;;14.20;93.20;;;;;;5073793;28;20020;-78
2021/10/26 10:28:47;;;;;;;23.42;13.13;;;14.20;93.30;;;;;;5075349;28;20070;-79
2021/10/26 10:31:15;;;;;;;24.92;12.70;;;14.30;93.30;;;;;;5055065;28;20032;-79
2021/10/26 10:33:43;;;;;;;19.05;11.90;;;14.20;93.10;;;;;;5070126;28;20380;-80
2021/10/26 10:36:10;;;;;;;23.48;13.32;;;14.20;93.00;;;;;;5073769;28;20021;-79
2021/10/26 10:38:36;;;;;;;20.02;13.82;;;14.20;92.90;;;;;;5040673;28;20040;-80
2021/10/26 10:41:28;;;;;;;22.90;12.15;;;14.20;93.00;;;;;;5074113;28;20035;-78
2021/10/26 10:44:00;;;;;;;25.10;12.18;;;14.20;93.00;;;;;;5054959;28;20104;-80
2021/10/26 10:46:41;;;;;;;21.70;12.30;;;14.20;93.10;;;;;;5070441;28;20021;-79
2021/10/26 10:49:27;;;;;;;19.30;11.27;;;14.20;92.90;;;;;;5074741;28;20515;-78
2021/10/26 10:52:00;;;;;;;23.60;12.82;;;14.10;93.00;;;;;;5074543;28;20020;-80
2021/10/26 10:54:38;;;;;;;18.60;10.82;;;14.10;93.10;;;;;;5067160;28;20028;-79
2021/10/26 10:57:36;;;;;;;22.75;11.10;;;14.10;93.10;;;;;;5072714;28;20123;-80
2021/10/26 11:00:12;;;;;;;21.50;12.95;;;14.10;92.90;;;;;;5074545;28;20033;-76
2021/10/26 11:02:40;;;;;;;21.05;11.50;;;14.00;92.90;;;;;;5074140;28;20021;-77
2021/10/26 11:05:08;;;;;;;25.73;12.73;;;14.00;93.10;;;;;;5073016;28;20035;-77
2021/10/26 11:07:43;;;;;;;20.35;11.27;;;14.10;93.30;;;;;;5053350;28;20473;-78
2021/10/26 11:10:15;;;;;;;19.58;11.30;;;14.10;93.30;;;;;;5073943;28;20036;-78
2021/10/26 11:12:43;;;;;;;22.88;13.27;;;14.20;93.30;;;;;;5072862;28;20495;-76
2021/10/26 11:15:11;;;;;;;24.25;13.98;;;14.10;93.20;;;;;;5056214;28;20119;-77
2021/10/26 11:17:39;;;;;;;22.13;13.18;;;14.10;93.30;;;;;;5072639;28;20404;-77
2021/10/26 11:20:09;;;;;;;20.45;12.32;;;14.10;93.40;;;;;;5072205;28;20489;-79
2021/10/26 11:22:50;;;;;;;22.02;12.68;;;14.10;93.40;;;;;;5073019;28;20028;-76
2021/10/26 11:25:36;;;;;;;23.35;13.48;;;14.00;93.60;;;;;;5072604;28;20074;-78
2021/10/26 11:28:15;;;;;;;20.00;11.52;;;14.10;93.70;;;;;;5070704;28;20514;-78
2021/10/26 11:30:44;;;;;;;24.95;13.43;;;14.10;93.80;;;;;;5068449;28;20111;-80
2021/10/26 11:33:12;;;;;;;23.48;12.63;;;14.30;93.80;;;;;;5066549;28;20021;-81
2021/10/26 11:35:50;;;;;;;24.42;12.35;;;14.30;93.60;;;;;;5072229;28;20040;-77
2021/10/26 11:38:22;;;;;;;24.77;13.25;;;14.40;93.50;;;;;;5073901;28;20063;-78
2021/10/26 11:40:55;;;;;;;22.50;13.27;;;14.50;93.50;;;;;;5073166;28;20090;-78
2021/10/26 11:43:23;;;;;;;23.83;11.80;;;14.60;93.30;;;;;;5056751;28;20056;-81
2021/10/26 11:46:00;;;;;;;24.67;14.20;;;14.70;93.30;;;;;;5072367;28;20396;-77
2021/10/26 11:48:48;;;;;;;25.15;11.43;;;14.80;93.10;;;;;;5073740;28;20054;-77
2021/10/26 11:51:26;;;;;;;19.92;10.85;;;14.90;93.00;;;;;;5072155;28;20052;-80
2021/10/26 11:53:54;;;;;;;18.77;10.50;;;15.00;93.00;;;;;;5072240;28;20028;-78
2021/10/26 11:56:46;;;;;;;23.52;11.48;;;15.30;92.80;;;;;;5071973;28;20047;-80
2021/10/26 11:59:19;;;;;;;18.27;10.75;;;15.40;92.50;;;;;;5070623;28;20127;-76
2021/10/26 12:01:54;;;;;;;22.95;11.43;;;15.50;92.30;;;;;;5073496;28;20423;-77
2021/10/26 12:04:25;;;;;;;22.55;10.70;;;15.60;91.80;;;;;;5072030;28;20025;-78
2021/10/26 12:07:00;;;;;;;18.02;10.18;;;15.70;91.60;;;;;;5071837;28;20032;-78
2021/10/26 12:09:28;;;;;;;20.67;10.38;;;15.70;91.40;;;;;;5071948;28;20108;-78
2021/10/26 12:11:56;;;;;;;21.58;9.68;;;15.80;90.80;;;;;;5071996;28;20024;-77
2021/10/26 12:14:26;;;;;;;18.52;8.80;;;15.80;90.40;;;;;;5073375;28;20025;-80
2021/10/26 12:17:03;;;;;;;21.77;9.55;;;15.70;90.40;;;;;;5073359;28;20098;-79
2021/10/26 12:19:31;;;;;;;18.58;9.30;;;15.70;90.40;;;;;;5073286;28;20060;-86
2021/10/26 12:21:57;;;;;;;19.05;9.45;;;15.70;90.20;;;;;;5071663;28;20037;-80
2021/10/26 12:24:29;;;;;;;16.20;7.88;;;15.70;90.40;;;;;;5041188;28;20025;-79
2021/10/26 12:27:07;;;;;;;18.55;7.30;;;15.80;90.60;;;;;;5053004;28;20116;-78
2021/10/26 12:29:35;;;;;;;15.57;6.75;;;16.20;90.80;;;;;;5067882;28;20029;-75
2021/10/26 12:32:04;;;;;;;17.13;7.32;;;16.50;90.40;;;;;;5074998;28;20036;-77
2021/10/26 12:34:33;;;;;;;15.60;6.47;;;16.60;88.30;;;;;;5075872;28;20016;-76
2021/10/26 12:37:20;;;;;;;13.90;6.65;;;16.60;87.10;;;;;;5075961;28;20028;-79
2021/10/26 12:39:52;;;;;;;16.10;7.03;;;16.50;87.00;;;;;;5055634;28;20029;-77